createdAt,value
2022-12-11T00:01:31.850Z,95.34
2022-12-11T00:04:11.453Z,95.08
2022-12-11T00:06:38.458Z,94.60
2022-12-11T00:09:05.477Z,94.35
2022-12-11T00:11:41.555Z,94.45
2022-12-11T00:14:15.956Z,93.68
2022-12-11T00:16:43.559Z,93.56
2022-12-11T00:19:10.595Z,93.69
2022-12-11T00:21:37.757Z,93.57
2022-12-11T00:24:20.200Z,93.96
2022-12-11T00:26:47.177Z,94.11
2022-12-11T00:29:14.125Z,93.79
2022-12-11T00:31:42.543Z,92.86
2022-12-11T00:34:09.777Z,92.79
2022-12-11T00:36:36.798Z,93.06
2022-12-11T00:39:10.764Z,93.49
2022-12-11T00:41:37.634Z,93.88
2022-12-11T00:44:04.797Z,93.51
2022-12-11T00:46:32.215Z,93.14
2022-12-11T00:48:59.298Z,93.42
2022-12-11T00:51:26.833Z,94.16
2022-12-11T00:53:54.173Z,94.84
2022-12-11T00:56:22.513Z,94.62
2022-12-11T00:58:49.869Z,94.57
2022-12-11T01:01:20.703Z,94.70
2022-12-11T01:03:48.650Z,94.92
2022-12-11T01:06:20.859Z,94.86
2022-12-11T01:08:48.496Z,94.26
2022-12-11T01:11:17.636Z,93.41
2022-12-11T01:13:44.554Z,93.05
2022-12-11T01:16:14.733Z,93.33
2022-12-11T01:18:42.393Z,94.84
2022-12-11T01:21:13.969Z,95.13
2022-12-11T01:23:41.345Z,95.42
2022-12-11T01:26:11.189Z,95.28
2022-12-11T01:28:38.421Z,95.42
2022-12-11T01:31:16.504Z,94.61
2022-12-11T01:33:54.218Z,93.61
2022-12-11T01:36:22.762Z,88.04
2022-12-11T01:38:50.134Z,84.30
2022-12-11T01:41:25.888Z,83.56
2022-12-11T01:44:12.197Z,73.53
2022-12-11T01:46:39.093Z,75.08
2022-12-11T01:49:15.469Z,77.15
2022-12-11T01:51:53.333Z,78.40
2022-12-11T01:54:23.236Z,79.41
2022-12-11T01:56:53.617Z,75.11
2022-12-11T01:59:25.728Z,74.88
2022-12-11T02:02:28.222Z,76.52
2022-12-11T02:04:55.329Z,76.12
2022-12-11T02:07:22.988Z,75.77
2022-12-11T02:09:50.524Z,76.39
2022-12-11T02:12:44.209Z,77.06
2022-12-11T02:15:32.420Z,77.30
2022-12-11T02:18:05.117Z,78.44
2022-12-11T02:20:44.364Z,79.16
2022-12-11T02:23:41.379Z,77.13
2022-12-11T02:26:29.568Z,75.56
2022-12-11T02:29:00.072Z,76.56
2022-12-11T02:31:42.624Z,80.36
2022-12-11T02:34:38.889Z,81.98
2022-12-11T02:37:10.785Z,83.40
2022-12-11T02:39:41.104Z,82.89
2022-12-11T02:42:09.942Z,82.99
2022-12-11T02:44:38.406Z,81.81
2022-12-11T02:47:10.613Z,80.80
2022-12-11T02:49:40.217Z,81.14
2022-12-11T02:52:08.814Z,81.85
2022-12-11T02:54:39.824Z,82.29
2022-12-11T02:57:13.222Z,81.00
2022-12-11T02:59:43.061Z,79.59
2022-12-11T03:02:12.075Z,79.51
2022-12-11T03:04:39.806Z,78.27
2022-12-11T03:07:32.152Z,77.72
2022-12-11T03:10:06.973Z,78.47
2022-12-11T03:12:37.725Z,77.86
2022-12-11T03:15:09.203Z,77.27
2022-12-11T03:17:49.381Z,77.76
2022-12-11T03:21:10.503Z,76.52
2022-12-11T03:23:51.774Z,77.18
2022-12-11T03:26:20.867Z,77.51
2022-12-11T03:28:55.743Z,77.28
2022-12-11T03:31:47.725Z,76.83
2022-12-11T03:34:21.936Z,78.28
2022-12-11T03:36:52.163Z,77.43
2022-12-11T03:39:40.615Z,76.66
2022-12-11T03:42:24.692Z,75.25
2022-12-11T03:44:55.088Z,77.22
2022-12-11T03:47:26.193Z,77.29
2022-12-11T03:49:54.605Z,79.48
2022-12-11T03:52:23.015Z,80.86
2022-12-11T03:54:51.405Z,81.12
2022-12-11T03:57:23.543Z,79.69
2022-12-11T03:59:50.692Z,81.05
2022-12-11T04:02:17.595Z,82.31
2022-12-11T04:04:54.814Z,83.09
2022-12-11T04:07:26.643Z,82.21
2022-12-11T04:09:53.952Z,83.13
2022-12-11T04:12:21.745Z,82.90
2022-12-11T04:14:49.402Z,83.25
2022-12-11T04:17:16.349Z,83.14
2022-12-11T04:19:55.489Z,82.93
2022-12-11T04:22:22.757Z,83.58
2022-12-11T04:24:49.818Z,83.78
2022-12-11T04:27:18.558Z,81.52
2022-12-11T04:32:26.077Z,79.34
2022-12-11T04:34:53.059Z,79.98
2022-12-11T04:37:20.071Z,78.44
2022-12-11T04:39:47.256Z,80.04
2022-12-11T04:42:27.238Z,81.43
2022-12-11T04:44:54.244Z,82.07
2022-12-11T04:47:21.263Z,81.30
2022-12-11T04:49:48.069Z,81.28
2022-12-11T04:52:14.978Z,82.18
2022-12-11T04:54:42.179Z,82.84
2022-12-11T04:57:09.145Z,83.00
2022-12-11T04:59:39.577Z,83.70
2022-12-11T05:02:22.952Z,83.74
2022-12-11T05:04:49.816Z,83.03
2022-12-11T05:07:26.455Z,83.33
2022-12-11T05:09:53.303Z,83.16
2022-12-11T05:12:20.152Z,82.79
2022-12-11T05:14:47.435Z,82.98
2022-12-11T05:17:14.593Z,83.13
2022-12-11T05:19:41.588Z,83.03
2022-12-11T05:22:08.784Z,82.76
2022-12-11T05:24:35.952Z,82.83
2022-12-11T05:27:05.474Z,83.13
2022-12-11T05:29:32.463Z,82.43
2022-12-11T05:31:59.686Z,82.79
2022-12-11T05:34:26.658Z,82.66
2022-12-11T05:36:53.915Z,83.07
2022-12-11T05:39:26.725Z,82.99
2022-12-11T05:41:53.653Z,83.11
2022-12-11T05:44:20.537Z,82.97
2022-12-11T05:46:56.197Z,82.93
2022-12-11T05:49:29.021Z,82.94
2022-12-11T05:51:57.754Z,83.68
2022-12-11T05:54:26.576Z,83.00
2022-12-11T05:56:53.583Z,83.59
2022-12-11T05:59:20.517Z,83.62
2022-12-11T06:01:47.607Z,83.30
2022-12-11T06:04:14.620Z,83.87
2022-12-11T06:06:42.286Z,84.28
2022-12-11T06:09:13.482Z,84.65
2022-12-11T06:11:40.615Z,85.23
2022-12-11T06:14:07.968Z,85.64
2022-12-11T06:16:37.165Z,85.77
2022-12-11T06:19:11.095Z,85.59
2022-12-11T06:21:37.908Z,85.09
2022-12-11T06:24:11.228Z,84.87
2022-12-11T06:26:38.432Z,85.09
2022-12-11T06:29:09.180Z,84.85
2022-12-11T06:31:39.854Z,84.74
2022-12-11T06:34:06.886Z,84.53
2022-12-11T06:36:33.886Z,84.30
2022-12-11T06:39:00.774Z,83.36
2022-12-11T06:41:37.691Z,82.79
2022-12-11T06:44:04.996Z,82.38
2022-12-11T06:46:32.123Z,82.64
2022-12-11T06:48:58.851Z,82.46
2022-12-11T06:51:25.807Z,82.75
2022-12-11T06:56:36.344Z,81.69
2022-12-11T06:59:23.167Z,81.06
2022-12-11T07:01:50.130Z,80.95
2022-12-11T07:04:17.239Z,81.34
2022-12-11T07:06:44.016Z,80.55
2022-12-11T07:09:11.264Z,78.39
2022-12-11T07:11:40.926Z,77.23
2022-12-11T07:14:26.558Z,76.01
2022-12-11T07:16:54.014Z,76.40
2022-12-11T07:19:20.951Z,76.84
2022-12-11T07:21:47.944Z,76.70
2022-12-11T07:24:15.015Z,76.04
2022-12-11T07:26:41.976Z,76.49
2022-12-11T07:29:13.891Z,76.86
2022-12-11T07:31:41.022Z,77.58
2022-12-11T07:34:08.535Z,77.30
2022-12-11T07:36:35.754Z,77.94
2022-12-11T07:39:02.697Z,78.86
2022-12-11T07:41:30.094Z,78.89
2022-12-11T07:44:03.656Z,78.12
2022-12-11T07:46:32.504Z,77.97
2022-12-11T07:48:59.974Z,78.43
2022-12-11T07:51:30.046Z,76.75
2022-12-11T07:54:10.216Z,76.59
2022-12-11T08:05:26.896Z,74.17
2022-12-11T08:08:02.800Z,73.42
2022-12-11T08:13:12.032Z,74.38
2022-12-11T08:15:38.829Z,75.06
2022-12-11T08:18:06.190Z,72.97
2022-12-11T08:20:38.535Z,73.31
2022-12-11T08:23:06.086Z,74.07
2022-12-11T08:25:33.307Z,73.82
2022-12-11T08:28:00.662Z,73.31
2022-12-11T08:30:27.909Z,73.77
2022-12-11T08:32:55.183Z,74.27
2022-12-11T08:35:22.084Z,74.00
2022-12-11T08:37:49.033Z,73.10
2022-12-11T08:40:16.221Z,72.56
2022-12-11T08:42:43.684Z,70.83
2022-12-11T08:45:11.250Z,72.24
2022-12-11T08:47:38.864Z,73.09
2022-12-11T08:50:10.278Z,72.59
2022-12-11T08:52:37.264Z,72.44
2022-12-11T08:55:07.224Z,72.90
2022-12-11T08:57:34.154Z,72.97
2022-12-11T09:00:01.448Z,72.77
2022-12-11T09:05:25.417Z,72.23
2022-12-11T09:07:56.238Z,71.81
2022-12-11T09:10:24.429Z,72.39
2022-12-11T09:12:51.218Z,71.97
2022-12-11T09:15:18.400Z,72.03
2022-12-11T09:18:01.233Z,72.09
2022-12-11T09:20:41.409Z,73.18
2022-12-11T09:23:08.494Z,73.04
2022-12-11T09:25:35.355Z,73.26
2022-12-11T09:28:02.686Z,72.93
2022-12-11T09:30:29.460Z,73.02
2022-12-11T09:32:56.357Z,73.19
2022-12-11T09:35:23.693Z,72.85
2022-12-11T09:37:50.455Z,72.13
2022-12-11T09:40:17.383Z,72.11
2022-12-11T09:43:01.588Z,72.01
2022-12-11T09:45:31.596Z,71.29
2022-12-11T09:48:00.566Z,71.55
2022-12-11T09:50:33.028Z,72.64
2022-12-11T09:53:15.238Z,73.11
2022-12-11T09:56:02.598Z,71.71
2022-12-11T09:58:44.283Z,70.62
2022-12-11T10:01:14.191Z,71.30
2022-12-11T10:03:56.927Z,70.63
2022-12-11T10:06:48.900Z,70.14
2022-12-11T10:09:40.703Z,69.56
2022-12-11T10:12:10.281Z,69.96
2022-12-11T10:14:55.262Z,70.34
2022-12-11T10:17:38.012Z,70.16
2022-12-11T10:20:39.656Z,70.45
2022-12-11T10:23:11.416Z,69.64
2022-12-11T10:25:45.093Z,69.90
2022-12-11T10:28:14.794Z,71.19
2022-12-11T10:31:07.673Z,71.92
2022-12-11T10:33:53.543Z,72.34
2022-12-11T10:36:28.397Z,74.71
2022-12-11T10:38:55.686Z,75.44
2022-12-11T10:41:33.548Z,75.80
2022-12-11T10:44:00.445Z,76.04
2022-12-11T10:46:29.894Z,74.65
2022-12-11T10:48:59.868Z,73.84
2022-12-11T10:51:37.524Z,73.34
2022-12-11T10:54:08.793Z,73.39
2022-12-11T10:56:38.242Z,72.96
2022-12-11T10:59:05.615Z,73.06
2022-12-11T11:01:33.202Z,72.42
2022-12-11T11:04:07.366Z,73.27
2022-12-11T11:06:41.005Z,73.36
2022-12-11T11:09:34.184Z,74.25
2022-12-11T11:12:08.352Z,74.65
2022-12-11T11:14:35.228Z,75.04
2022-12-11T11:17:02.323Z,73.25
2022-12-11T11:19:35.296Z,72.52
2022-12-11T11:22:14.575Z,72.31
2022-12-11T11:24:56.541Z,72.55
2022-12-11T11:27:35.738Z,71.82
2022-12-11T11:30:07.376Z,72.12
2022-12-11T11:32:38.705Z,73.20
2022-12-11T11:35:11.815Z,73.06
2022-12-11T11:37:41.175Z,73.23
2022-12-11T11:40:41.035Z,74.82
2022-12-11T11:43:22.980Z,78.65
2022-12-11T11:45:59.878Z,80.18
2022-12-11T11:48:50.855Z,81.59
2022-12-11T11:51:39.917Z,82.92
2022-12-11T11:54:19.644Z,83.13
2022-12-11T11:56:46.860Z,82.94
2022-12-11T11:59:28.217Z,81.16
2022-12-11T12:01:57.080Z,82.99
2022-12-11T12:04:28.052Z,83.06
2022-12-11T12:07:32.759Z,84.06
2022-12-11T12:10:26.941Z,83.75
2022-12-11T12:13:49.612Z,85.31
2022-12-11T12:16:54.821Z,84.41
2022-12-11T12:20:10.173Z,84.70
2022-12-11T12:22:41.512Z,85.35
2022-12-11T12:25:28.313Z,84.92
2022-12-11T12:28:33.267Z,86.58
2022-12-11T12:31:38.909Z,86.80
2022-12-11T12:34:15.144Z,86.99
